Abatia, Brazil
Current Conditions -  °F | °C
As of 6:00 AM on Sunday 23 Nov 2014 (Local Time) from SBLO Reporting Station
Moderate Fog Moderate Fog  
Wind Chill: 66°   Ceiling: 200
Heat Index: 66°   Visibility: 0mi
Dew Point: 66°   Wind: 3mph
Humidity: 100%   Direction: 90°E
Pressure: 29.94"   Gusts: NA
Location:  23.3°S, 50.31°W
Report Text: SBLO 230800Z 09003KT 0000 FG VV002 19/19 Q1014
Loading
Personal Weather Stations






























Interactive Weather Map New forecast layout! Learn more

10-Day Weather Forecast

Advertisements
Track Severe Weather on mobile